createdAt,value
2024-01-09T00:01:49.227Z,-2.13
2024-01-09T00:03:51.836Z,-2.13
2024-01-09T00:05:55.272Z,-2.14
2024-01-09T00:07:57.977Z,-2.11
2024-01-09T00:10:00.609Z,-2.12
2024-01-09T00:12:03.437Z,-2.16
2024-01-09T00:14:06.212Z,-2.15
2024-01-09T00:16:09.477Z,-2.14
2024-01-09T00:18:12.881Z,-2.13
2024-01-09T00:20:18.137Z,-2.15
2024-01-09T00:22:20.625Z,-2.18
2024-01-09T00:24:23.245Z,-2.17
2024-01-09T00:26:25.867Z,-2.16
2024-01-09T00:28:28.460Z,-2.18
2024-01-09T00:30:30.989Z,-2.17
2024-01-09T00:32:34.464Z,-2.21
2024-01-09T00:34:37.121Z,-2.18
2024-01-09T00:36:46.656Z,-2.21
2024-01-09T00:38:49.621Z,-2.20
2024-01-09T00:40:52.102Z,-2.22
2024-01-09T00:42:54.605Z,-2.21
2024-01-09T00:44:57.734Z,-2.20
2024-01-09T00:47:00.397Z,-2.20
2024-01-09T00:49:03.787Z,-2.18
2024-01-09T00:51:06.626Z,-2.18
2024-01-09T00:53:10.153Z,-2.21
2024-01-09T00:55:13.808Z,-2.21
2024-01-09T00:57:17.633Z,-2.24
2024-01-09T00:59:21.541Z,-2.22
2024-01-09T01:01:24.342Z,-2.25
2024-01-09T01:03:27.352Z,-2.26
2024-01-09T01:05:30.201Z,-2.26
2024-01-09T01:07:32.872Z,-2.26
2024-01-09T01:09:35.855Z,-2.27
2024-01-09T01:11:40.320Z,-2.25
2024-01-09T01:13:45.583Z,-2.25
2024-01-09T01:16:00.057Z,-2.30
2024-01-09T01:18:02.825Z,-2.28
2024-01-09T01:20:06.965Z,-2.30
2024-01-09T01:22:09.445Z,-2.31
2024-01-09T01:24:12.564Z,-2.29
2024-01-09T01:26:16.165Z,-2.33
2024-01-09T01:28:18.636Z,-2.30
2024-01-09T01:30:21.286Z,-2.32
2024-01-09T01:32:24.552Z,-2.32
2024-01-09T01:34:27.232Z,-2.28
2024-01-09T01:36:30.778Z,-2.29
2024-01-09T01:38:33.300Z,-2.31
2024-01-09T01:40:35.953Z,-2.31
2024-01-09T01:42:38.753Z,-2.31
2024-01-09T01:44:41.622Z,-2.34
2024-01-09T01:46:46.362Z,-2.31
2024-01-09T01:48:49.349Z,-2.32
2024-01-09T01:50:52.291Z,-2.32
2024-01-09T01:52:56.375Z,-2.32
2024-01-09T01:54:59.471Z,-2.35
2024-01-09T01:57:04.881Z,-2.36
2024-01-09T01:59:08.138Z,-2.41
2024-01-09T02:01:12.093Z,-2.38
2024-01-09T02:03:16.414Z,-2.44
2024-01-09T02:05:21.555Z,-2.40
2024-01-09T02:07:25.740Z,-2.39
2024-01-09T02:09:29.025Z,-2.39
2024-01-09T02:11:35.563Z,-2.39
2024-01-09T02:13:38.859Z,-2.38
2024-01-09T02:15:41.601Z,-2.42
2024-01-09T02:17:46.867Z,-2.43
2024-01-09T02:19:50.106Z,-2.41
2024-01-09T02:21:53.695Z,-2.45
2024-01-09T02:23:56.996Z,-2.41
2024-01-09T02:26:07.154Z,-2.40
2024-01-09T02:28:23.695Z,-2.40
2024-01-09T02:30:26.685Z,-2.42
2024-01-09T02:32:29.401Z,-2.47
2024-01-09T02:34:35.200Z,-2.42
2024-01-09T02:36:37.962Z,-2.50
2024-01-09T02:38:45.752Z,-2.46
2024-01-09T02:40:48.454Z,-2.42
2024-01-09T02:42:53.147Z,-2.45
2024-01-09T02:44:56.122Z,-2.44
2024-01-09T02:47:00.304Z,-2.43
2024-01-09T02:49:03.016Z,-2.46
2024-01-09T02:51:05.970Z,-2.45
2024-01-09T02:53:08.433Z,-2.47
2024-01-09T02:55:11.843Z,-2.44
2024-01-09T02:57:15.174Z,-2.42
2024-01-09T02:59:18.596Z,-2.42
2024-01-09T03:01:21.112Z,-2.49
2024-01-09T03:03:24.390Z,-2.45
2024-01-09T03:05:26.980Z,-2.45
2024-01-09T03:07:31.278Z,-2.44
2024-01-09T03:09:34.933Z,-2.42
2024-01-09T03:11:38.436Z,-2.43
2024-01-09T03:13:41.515Z,-2.43
2024-01-09T03:15:44.243Z,-2.47
2024-01-09T03:17:47.931Z,-2.45
2024-01-09T03:19:50.460Z,-2.46
2024-01-09T03:21:54.106Z,-2.44
2024-01-09T03:23:56.772Z,-2.47
2024-01-09T03:25:59.849Z,-2.48
2024-01-09T03:28:02.817Z,-2.48
2024-01-09T03:30:06.068Z,-2.48
2024-01-09T03:32:10.791Z,-2.47
2024-01-09T03:34:13.891Z,-2.51
2024-01-09T03:36:16.554Z,-2.51
2024-01-09T03:38:19.045Z,-2.51
2024-01-09T03:40:22.309Z,-2.53
2024-01-09T03:42:25.325Z,-2.50
2024-01-09T03:44:28.532Z,-2.54
2024-01-09T03:46:31.024Z,-2.58
2024-01-09T03:48:33.691Z,-2.51
2024-01-09T03:50:36.687Z,-2.51
2024-01-09T03:52:39.545Z,-2.54
2024-01-09T03:54:41.992Z,-2.55
2024-01-09T03:56:44.673Z,-2.54
2024-01-09T03:58:48.823Z,-2.52
2024-01-09T04:00:51.365Z,-2.55
2024-01-09T04:02:54.431Z,-2.56
2024-01-09T04:04:57.995Z,-2.54
2024-01-09T04:07:00.979Z,-2.56
2024-01-09T04:09:04.754Z,-2.55
2024-01-09T04:11:09.081Z,-2.52
2024-01-09T04:13:12.085Z,-2.53
2024-01-09T04:15:15.253Z,-2.55
2024-01-09T04:17:18.305Z,-2.57
2024-01-09T04:19:20.811Z,-2.56
2024-01-09T04:21:23.304Z,-2.56
2024-01-09T04:23:25.844Z,-2.58
2024-01-09T04:25:28.857Z,-2.58
2024-01-09T04:27:31.802Z,-2.58
2024-01-09T04:29:34.318Z,-2.58
2024-01-09T04:31:37.294Z,-2.57
2024-01-09T04:33:43.130Z,-2.57
2024-01-09T04:35:45.732Z,-2.58
2024-01-09T04:37:48.250Z,-2.59
2024-01-09T04:39:51.269Z,-2.60
2024-01-09T04:41:53.766Z,-2.59
2024-01-09T04:43:56.747Z,-2.59
2024-01-09T04:45:59.262Z,-2.60
2024-01-09T04:48:01.839Z,-2.62
2024-01-09T04:50:04.590Z,-2.61
2024-01-09T04:52:07.834Z,-2.62
2024-01-09T04:54:10.319Z,-2.72
2024-01-09T04:56:13.274Z,-2.61
2024-01-09T04:58:16.519Z,-2.64
2024-01-09T05:00:20.988Z,-2.63
2024-01-09T05:02:24.044Z,-2.63
2024-01-09T05:04:26.598Z,-2.63
2024-01-09T05:06:29.239Z,-2.64
2024-01-09T05:08:34.704Z,-2.63
2024-01-09T05:10:37.197Z,-2.66
2024-01-09T05:12:40.609Z,-2.63
2024-01-09T05:14:43.079Z,-2.62
2024-01-09T05:16:45.671Z,-2.64
2024-01-09T05:18:48.775Z,-2.68
2024-01-09T05:20:51.482Z,-2.64
2024-01-09T05:22:54.676Z,-2.68
2024-01-09T05:24:57.110Z,-2.68
2024-01-09T05:26:59.605Z,-2.68
2024-01-09T05:29:02.574Z,-2.69
2024-01-09T05:31:05.183Z,-2.68
2024-01-09T05:33:07.781Z,-2.69
2024-01-09T05:35:12.291Z,-2.71
2024-01-09T05:37:14.824Z,-2.68
2024-01-09T05:39:17.300Z,-2.71
2024-01-09T05:41:25.837Z,-2.72
2024-01-09T05:43:28.296Z,-2.71
2024-01-09T05:45:30.742Z,-2.71
2024-01-09T05:47:34.144Z,-2.71
2024-01-09T05:49:36.731Z,-2.71
2024-01-09T05:51:39.163Z,-2.71
2024-01-09T05:53:42.689Z,-2.74
2024-01-09T05:55:45.649Z,-2.75
2024-01-09T05:57:48.904Z,-2.73
2024-01-09T05:59:51.998Z,-2.76
2024-01-09T06:01:56.495Z,-2.75
2024-01-09T06:03:59.070Z,-2.75
2024-01-09T06:06:02.600Z,-2.77
2024-01-09T06:08:05.511Z,-2.74
2024-01-09T06:10:08.171Z,-2.75
2024-01-09T06:12:12.300Z,-2.74
2024-01-09T06:14:16.365Z,-2.76
2024-01-09T06:16:18.856Z,-2.76
2024-01-09T06:18:21.509Z,-2.76
2024-01-09T06:20:24.111Z,-2.82
2024-01-09T06:22:27.299Z,-2.80
2024-01-09T06:24:29.749Z,-2.83
2024-01-09T06:26:32.973Z,-2.81
2024-01-09T06:28:36.919Z,-2.79
2024-01-09T06:30:39.626Z,-2.84
2024-01-09T06:32:42.954Z,-2.82
2024-01-09T06:34:45.621Z,-2.82
2024-01-09T06:36:49.120Z,-2.81
2024-01-09T06:38:51.778Z,-2.83
2024-01-09T06:40:54.486Z,-2.82
2024-01-09T06:42:57.042Z,-2.85
2024-01-09T06:45:00.186Z,-2.82
2024-01-09T06:47:03.634Z,-2.86
2024-01-09T06:49:06.595Z,-2.85
2024-01-09T06:51:09.543Z,-2.83
2024-01-09T06:53:12.566Z,-2.86
2024-01-09T06:55:15.528Z,-2.86
2024-01-09T06:57:18.115Z,-2.86
2024-01-09T06:59:20.574Z,-2.91
2024-01-09T07:01:23.239Z,-2.91
2024-01-09T07:03:26.152Z,-2.90
2024-01-09T07:05:28.789Z,-2.96
2024-01-09T07:07:38.379Z,-2.96
2024-01-09T07:09:44.529Z,-2.97
2024-01-09T07:11:47.806Z,-3.01
2024-01-09T07:13:50.243Z,-2.97
2024-01-09T07:15:54.840Z,-3.01
2024-01-09T07:17:58.150Z,-3.01
2024-01-09T07:20:00.983Z,-3.00
2024-01-09T07:22:03.534Z,-3.01
2024-01-09T07:24:06.788Z,-3.01
2024-01-09T07:26:09.399Z,-3.01
2024-01-09T07:28:11.922Z,-3.04
2024-01-09T07:30:15.412Z,-3.04
2024-01-09T07:32:18.305Z,-3.06
2024-01-09T07:34:20.985Z,-3.11
2024-01-09T07:36:23.933Z,-3.09
2024-01-09T07:38:27.216Z,-3.06
2024-01-09T07:40:30.493Z,-3.07
2024-01-09T07:42:40.691Z,-3.09
2024-01-09T07:44:49.300Z,-3.11
2024-01-09T07:46:52.661Z,-3.09
2024-01-09T07:48:55.715Z,-3.12
2024-01-09T07:50:59.283Z,-3.14
2024-01-09T07:53:03.654Z,-3.16
2024-01-09T07:55:08.583Z,-3.18
2024-01-09T07:57:21.474Z,-3.16
2024-01-09T07:59:25.302Z,-3.16
2024-01-09T08:01:30.707Z,-3.17
2024-01-09T08:03:33.663Z,-3.19
2024-01-09T08:05:36.455Z,-3.15
2024-01-09T08:07:40.184Z,-3.20
2024-01-09T08:09:43.317Z,-3.19
2024-01-09T08:11:49.699Z,-3.20
2024-01-09T08:13:52.239Z,-3.21
2024-01-09T08:15:56.658Z,-3.26
2024-01-09T08:18:00.773Z,-3.22
2024-01-09T08:20:05.849Z,-3.26
2024-01-09T08:22:08.433Z,-3.23
2024-01-09T08:24:19.873Z,-3.29
2024-01-09T08:26:23.975Z,-3.27
2024-01-09T08:28:26.561Z,-3.26
2024-01-09T08:30:30.929Z,-3.29
2024-01-09T08:32:37.861Z,-3.30
2024-01-09T08:34:42.636Z,-3.30
2024-01-09T08:36:47.392Z,-3.31
2024-01-09T08:38:51.156Z,-3.32
2024-01-09T08:40:58.447Z,-3.34
2024-01-09T08:43:01.410Z,-3.37
2024-01-09T08:45:04.611Z,-3.43
2024-01-09T08:47:09.014Z,-3.43
2024-01-09T08:49:12.690Z,-3.44
2024-01-09T08:51:18.178Z,-3.39
2024-01-09T08:53:26.410Z,-3.42
2024-01-09T08:55:29.061Z,-3.47
2024-01-09T08:57:33.364Z,-3.43
2024-01-09T08:59:36.654Z,-3.46
2024-01-09T09:01:40.627Z,-3.48
2024-01-09T09:03:43.781Z,-3.48
2024-01-09T09:05:47.003Z,-3.49
2024-01-09T09:07:49.544Z,-3.50
2024-01-09T09:09:52.449Z,-3.53
2024-01-09T09:11:55.560Z,-3.53
2024-01-09T09:13:58.724Z,-3.54
2024-01-09T09:16:01.554Z,-3.53
2024-01-09T09:18:04.386Z,-3.56
2024-01-09T09:20:08.265Z,-3.54
2024-01-09T09:22:12.589Z,-3.55
2024-01-09T09:24:15.145Z,-3.62
2024-01-09T09:26:18.457Z,-3.62
2024-01-09T09:28:21.174Z,-3.62
2024-01-09T09:30:24.620Z,-3.59
2024-01-09T09:32:27.351Z,-3.59
2024-01-09T09:34:30.439Z,-3.59
2024-01-09T09:36:32.956Z,-3.60
2024-01-09T09:38:36.457Z,-3.68
2024-01-09T09:40:39.029Z,-3.65
2024-01-09T09:42:44.491Z,-3.66
2024-01-09T09:44:59.805Z,-3.65
2024-01-09T09:47:03.092Z,-3.66
2024-01-09T09:49:07.592Z,-3.65
2024-01-09T09:51:11.338Z,-3.73
2024-01-09T09:53:13.996Z,-3.75
2024-01-09T09:55:16.670Z,-3.76
2024-01-09T09:57:21.940Z,-3.75
2024-01-09T09:59:25.109Z,-3.73
2024-01-09T10:01:30.841Z,-3.73
2024-01-09T10:03:35.177Z,-3.74
2024-01-09T10:05:42.595Z,-3.75
2024-01-09T10:07:51.657Z,-3.78
2024-01-09T10:09:57.783Z,-3.79
2024-01-09T10:12:00.742Z,-3.78
2024-01-09T10:14:04.165Z,-3.82
2024-01-09T10:16:07.125Z,-3.81
2024-01-09T10:18:10.410Z,-3.88
2024-01-09T10:20:17.408Z,-3.83
2024-01-09T10:22:20.927Z,-3.85
2024-01-09T10:24:23.815Z,-3.87
2024-01-09T10:26:28.748Z,-3.86
2024-01-09T10:28:31.231Z,-3.87
2024-01-09T10:30:35.510Z,-3.92
2024-01-09T10:32:44.833Z,-3.91
2024-01-09T10:34:48.663Z,-3.96
2024-01-09T10:36:52.216Z,-3.98
2024-01-09T10:39:05.341Z,-3.99
2024-01-09T10:41:18.937Z,-3.95
2024-01-09T10:43:26.928Z,-3.96
2024-01-09T10:45:29.867Z,-3.94
2024-01-09T10:47:35.689Z,-4.02
2024-01-09T10:49:43.586Z,-4.02
2024-01-09T10:51:48.052Z,-4.05
2024-01-09T10:53:53.098Z,-4.05
2024-01-09T10:55:57.512Z,-4.07
2024-01-09T10:58:00.583Z,-4.08
2024-01-09T11:00:09.122Z,-4.08
2024-01-09T11:02:18.633Z,-4.05
2024-01-09T11:04:22.909Z,-4.09
2024-01-09T11:06:26.735Z,-4.08
2024-01-09T11:08:30.351Z,-4.07
2024-01-09T11:10:34.954Z,-4.08
2024-01-09T11:12:44.688Z,-4.07
2024-01-09T11:14:54.742Z,-4.10
2024-01-09T11:16:58.171Z,-4.10
2024-01-09T11:19:03.375Z,-4.13
2024-01-09T11:21:07.043Z,-4.11
2024-01-09T11:23:13.092Z,-4.11
2024-01-09T11:25:20.506Z,-4.12
2024-01-09T11:27:23.762Z,-4.15
2024-01-09T11:29:53.695Z,-4.14
2024-01-09T11:31:56.316Z,-4.15
2024-01-09T11:34:04.218Z,-4.17
2024-01-09T11:36:08.727Z,-4.20
2024-01-09T11:38:11.328Z,-4.19
2024-01-09T11:40:15.428Z,-4.16
2024-01-09T11:42:18.147Z,-4.22
2024-01-09T11:44:21.316Z,-4.18
2024-01-09T11:46:25.906Z,-4.21
2024-01-09T11:48:29.083Z,-4.24
2024-01-09T11:50:31.605Z,-4.28
2024-01-09T11:52:34.484Z,-4.26
2024-01-09T11:54:38.980Z,-4.19
2024-01-09T11:56:43.828Z,-4.23
2024-01-09T11:58:48.230Z,-4.28
2024-01-09T12:00:51.963Z,-4.27
2024-01-09T12:02:55.018Z,-4.23
2024-01-09T12:04:57.713Z,-4.26
2024-01-09T12:07:00.415Z,-4.28
2024-01-09T12:09:03.003Z,-4.31
2024-01-09T12:11:06.028Z,-4.35
2024-01-09T12:13:08.525Z,-4.31
2024-01-09T12:15:18.954Z,-4.29
2024-01-09T12:17:24.513Z,-4.29
2024-01-09T12:19:27.134Z,-4.28
2024-01-09T12:21:33.317Z,-4.28
2024-01-09T12:23:55.622Z,-4.28
2024-01-09T12:25:59.326Z,-4.30
2024-01-09T12:28:03.457Z,-4.37
2024-01-09T12:30:06.757Z,-4.33
2024-01-09T12:32:09.577Z,-4.35
2024-01-09T12:34:13.384Z,-4.33
2024-01-09T12:36:18.681Z,-4.32
2024-01-09T12:38:24.050Z,-4.33
2024-01-09T12:40:26.678Z,-4.32
2024-01-09T12:42:29.854Z,-4.35
2024-01-09T12:44:33.216Z,-4.31
2024-01-09T12:46:36.329Z,-4.33
2024-01-09T12:48:40.169Z,-4.30
2024-01-09T12:50:43.488Z,-4.31
2024-01-09T12:52:47.326Z,-4.37
2024-01-09T12:54:50.652Z,-4.38
2024-01-09T12:56:57.157Z,-4.42
2024-01-09T12:58:59.670Z,-4.39
2024-01-09T13:01:03.023Z,-4.38
2024-01-09T13:03:07.437Z,-4.36
2024-01-09T13:05:11.459Z,-4.35
2024-01-09T13:07:16.438Z,-4.36
2024-01-09T13:09:19.863Z,-4.38
2024-01-09T13:11:22.393Z,-4.37
2024-01-09T13:13:25.553Z,-4.40
2024-01-09T13:15:29.347Z,-4.40
2024-01-09T13:17:32.768Z,-4.39
2024-01-09T13:19:35.303Z,-4.33
2024-01-09T13:23:44.171Z,-4.36
2024-01-09T13:24:04.700Z,-4.37
2024-01-09T13:26:09.076Z,-4.32
2024-01-09T13:28:12.022Z,-4.38
2024-01-09T13:32:20.148Z,-4.33
2024-01-09T13:34:24.893Z,-4.34
2024-01-09T13:36:28.192Z,-4.34
2024-01-09T13:38:31.564Z,-4.33
2024-01-09T13:40:35.092Z,-4.37
2024-01-09T13:42:38.525Z,-4.34
2024-01-09T13:44:42.918Z,-4.36
2024-01-09T13:46:46.205Z,-4.40
2024-01-09T13:48:50.471Z,-4.37
2024-01-09T13:52:59.099Z,-4.36
2024-01-09T13:55:04.766Z,-4.35
2024-01-09T13:57:08.829Z,-4.32
2024-01-09T13:59:11.348Z,-4.34
2024-01-09T14:01:15.970Z,-4.35
2024-01-09T14:03:20.634Z,-4.36
2024-01-09T14:05:23.374Z,-4.32
2024-01-09T14:07:25.930Z,-4.35
2024-01-09T14:09:30.768Z,-4.37
2024-01-09T14:11:34.170Z,-4.32
2024-01-09T14:13:37.401Z,-4.39
2024-01-09T14:15:40.365Z,-4.33
2024-01-09T14:17:43.118Z,-4.33
2024-01-09T14:19:45.747Z,-4.32
2024-01-09T14:21:49.816Z,-4.28
2024-01-09T14:23:52.494Z,-4.27
2024-01-09T14:25:55.024Z,-4.33
2024-01-09T14:27:57.922Z,-4.28
2024-01-09T14:30:00.523Z,-4.28
2024-01-09T14:32:03.142Z,-4.27
2024-01-09T14:34:05.685Z,-4.27
2024-01-09T14:36:08.458Z,-4.23
2024-01-09T14:38:11.012Z,-4.24
2024-01-09T14:40:14.381Z,-4.20
2024-01-09T14:42:20.469Z,-4.20
2024-01-09T14:44:24.276Z,-4.19
2024-01-09T14:46:28.179Z,-4.20
2024-01-09T14:48:31.277Z,-4.17
2024-01-09T14:50:33.806Z,-4.17
2024-01-09T14:52:37.617Z,-4.17
2024-01-09T14:54:40.472Z,-4.19
2024-01-09T14:56:44.578Z,-4.19
2024-01-09T14:58:47.625Z,-4.19
2024-01-09T15:00:50.814Z,-4.19
2024-01-09T15:02:56.658Z,-4.15
2024-01-09T15:04:59.540Z,-4.15
2024-01-09T15:07:03.698Z,-4.15
2024-01-09T15:09:06.160Z,-4.13
2024-01-09T15:11:12.118Z,-4.14
2024-01-09T15:13:15.149Z,-4.11
2024-01-09T15:15:17.794Z,-4.13
2024-01-09T15:17:20.665Z,-4.10
2024-01-09T15:19:23.729Z,-4.14
2024-01-09T15:21:26.377Z,-4.17
2024-01-09T15:23:31.719Z,-4.15
2024-01-09T15:25:34.485Z,-4.17
2024-01-09T15:27:37.484Z,-4.18
2024-01-09T15:29:42.333Z,-4.18
2024-01-09T15:31:45.182Z,-4.14
2024-01-09T15:33:49.776Z,-4.09
2024-01-09T15:35:52.968Z,-4.14
2024-01-09T15:37:55.478Z,-4.11
2024-01-09T15:39:57.991Z,-4.10
2024-01-09T15:42:00.490Z,-4.10
2024-01-09T15:44:06.080Z,-4.10
2024-01-09T15:46:09.363Z,-4.09
2024-01-09T15:48:12.235Z,-4.04
2024-01-09T15:50:14.829Z,-4.04
2024-01-09T15:52:17.530Z,-4.03
2024-01-09T15:54:21.214Z,-4.10
2024-01-09T15:56:27.334Z,-4.12
2024-01-09T15:58:30.882Z,-4.12
2024-01-09T16:00:33.404Z,-4.08
2024-01-09T16:02:35.931Z,-4.06
2024-01-09T16:04:40.845Z,-4.12
2024-01-09T16:06:44.040Z,-4.08
2024-01-09T16:08:49.365Z,-4.08
2024-01-09T16:10:53.054Z,-4.07
2024-01-09T16:12:55.575Z,-4.05
2024-01-09T16:14:59.157Z,-4.11
2024-01-09T16:17:02.444Z,-4.10
2024-01-09T16:19:07.393Z,-4.09
2024-01-09T16:21:10.314Z,-4.14
2024-01-09T16:23:12.910Z,-4.11
2024-01-09T16:25:15.816Z,-4.15
2024-01-09T16:27:18.833Z,-4.15
2024-01-09T16:29:21.622Z,-4.15
2024-01-09T16:31:24.120Z,-4.09
2024-01-09T16:33:29.974Z,-4.06
2024-01-09T16:35:33.714Z,-4.08
2024-01-09T16:37:37.248Z,-4.08
2024-01-09T16:39:40.471Z,-4.14
2024-01-09T16:41:46.188Z,-4.15
2024-01-09T16:43:52.473Z,-4.14
2024-01-09T16:45:57.574Z,-4.10
2024-01-09T16:48:00.106Z,-4.12
2024-01-09T16:50:03.261Z,-4.07
2024-01-09T16:52:06.975Z,-4.09
2024-01-09T16:54:09.519Z,-4.11
2024-01-09T16:56:25.303Z,-4.15
2024-01-09T16:58:28.175Z,-4.07
2024-01-09T17:00:30.838Z,-4.05
2024-01-09T17:02:34.150Z,-4.03
2024-01-09T17:04:36.666Z,-4.00
2024-01-09T17:06:39.864Z,-3.98
2024-01-09T17:08:42.490Z,-3.95
2024-01-09T17:10:47.061Z,-4.02
2024-01-09T17:12:50.148Z,-4.00
2024-01-09T17:14:52.596Z,-4.00
2024-01-09T17:16:55.709Z,-4.02
2024-01-09T17:18:58.464Z,-4.08
2024-01-09T17:21:01.834Z,-4.05
2024-01-09T17:23:04.880Z,-4.01
2024-01-09T17:25:12.323Z,-4.06
2024-01-09T17:27:15.833Z,-4.04
2024-01-09T17:29:18.510Z,-4.04
2024-01-09T17:31:20.985Z,-4.09
2024-01-09T17:33:23.898Z,-4.14
2024-01-09T17:35:27.082Z,-4.12
2024-01-09T17:37:29.550Z,-4.14
2024-01-09T17:39:32.384Z,-4.07
2024-01-09T17:41:36.595Z,-4.05
2024-01-09T17:43:40.639Z,-4.05
2024-01-09T17:45:43.866Z,-4.04
2024-01-09T17:47:47.098Z,-4.10
2024-01-09T17:49:49.731Z,-4.06
2024-01-09T17:51:52.704Z,-4.16
2024-01-09T17:53:55.728Z,-4.11
2024-01-09T17:55:58.310Z,-4.15
2024-01-09T17:58:02.572Z,-4.15
2024-01-09T18:00:08.213Z,-4.14
2024-01-09T18:02:14.476Z,-4.20
2024-01-09T18:04:21.090Z,-4.22
2024-01-09T18:06:24.441Z,-4.23
2024-01-09T18:08:26.949Z,-4.21
2024-01-09T18:10:29.756Z,-4.20
2024-01-09T18:12:32.927Z,-4.24
2024-01-09T18:14:35.440Z,-4.24
2024-01-09T18:16:39.128Z,-4.32
2024-01-09T18:18:42.961Z,-4.35
2024-01-09T18:20:45.577Z,-4.33
2024-01-09T18:22:48.060Z,-4.42
2024-01-09T18:24:50.607Z,-4.41
2024-01-09T18:26:54.767Z,-4.42
2024-01-09T18:29:06.336Z,-4.40
2024-01-09T18:31:13.715Z,-4.40
2024-01-09T18:33:16.297Z,-4.45
2024-01-09T18:35:18.912Z,-4.45
2024-01-09T18:37:22.462Z,-4.53
2024-01-09T18:39:24.890Z,-4.52
2024-01-09T18:41:27.339Z,-4.52
2024-01-09T18:43:30.915Z,-4.55
2024-01-09T18:45:33.349Z,-4.58
2024-01-09T18:47:40.521Z,-4.61
2024-01-09T18:49:43.181Z,-4.65
2024-01-09T18:51:46.054Z,-4.66
2024-01-09T18:53:49.427Z,-4.65
2024-01-09T18:55:52.720Z,-4.66
2024-01-09T18:57:55.185Z,-4.70
2024-01-09T18:59:58.640Z,-4.67
2024-01-09T19:02:01.687Z,-4.67
2024-01-09T19:04:07.637Z,-4.69
2024-01-09T19:06:10.981Z,-4.84
2024-01-09T19:08:15.332Z,-4.81
2024-01-09T19:10:18.186Z,-4.82
2024-01-09T19:12:21.512Z,-4.81
2024-01-09T19:14:24.060Z,-4.78
2024-01-09T19:16:27.472Z,-4.86
2024-01-09T19:18:30.149Z,-4.89
2024-01-09T19:20:32.746Z,-4.88
2024-01-09T19:22:36.471Z,-4.96
2024-01-09T19:24:43.023Z,-4.92
2024-01-09T19:26:48.064Z,-4.95
2024-01-09T19:28:50.786Z,-4.95
2024-01-09T19:30:54.589Z,-4.91
2024-01-09T19:32:57.199Z,-5.02
2024-01-09T19:35:01.316Z,-4.99
2024-01-09T19:37:04.614Z,-4.96
2024-01-09T19:39:09.332Z,-4.97
2024-01-09T19:41:19.296Z,-4.99
2024-01-09T19:43:24.013Z,-5.01
2024-01-09T19:45:26.510Z,-5.00
2024-01-09T19:47:31.183Z,-5.03
2024-01-09T19:49:33.743Z,-5.03
2024-01-09T19:51:36.329Z,-5.04
2024-01-09T19:53:38.833Z,-5.01
2024-01-09T19:55:41.923Z,-5.07
2024-01-09T19:57:46.214Z,-5.04
2024-01-09T19:59:48.887Z,-5.10
2024-01-09T20:01:51.439Z,-5.08
2024-01-09T20:03:56.347Z,-5.14
2024-01-09T20:05:59.033Z,-5.14
2024-01-09T20:08:02.883Z,-5.13
2024-01-09T20:10:07.316Z,-5.15
2024-01-09T20:12:11.832Z,-5.16
2024-01-09T20:14:15.708Z,-5.09
2024-01-09T20:16:18.544Z,-5.13
2024-01-09T20:18:25.503Z,-5.18
2024-01-09T20:20:28.028Z,-5.17
2024-01-09T20:22:31.802Z,-5.17
2024-01-09T20:24:37.341Z,-5.15
2024-01-09T20:26:40.456Z,-5.15
2024-01-09T20:28:44.465Z,-5.19
2024-01-09T20:30:47.659Z,-5.14
2024-01-09T20:32:50.224Z,-5.19
2024-01-09T20:34:52.802Z,-5.18
2024-01-09T20:36:55.264Z,-5.15
2024-01-09T20:38:58.580Z,-5.17
2024-01-09T20:41:01.190Z,-5.22
2024-01-09T20:43:03.758Z,-5.24
2024-01-09T20:45:07.634Z,-5.25
2024-01-09T20:47:10.181Z,-5.20
2024-01-09T20:49:15.577Z,-5.18
2024-01-09T20:51:18.941Z,-5.19
2024-01-09T20:53:22.064Z,-5.19
2024-01-09T20:55:25.374Z,-5.19
2024-01-09T20:57:29.771Z,-5.18
2024-01-09T20:59:32.283Z,-5.17
2024-01-09T21:01:44.516Z,-5.23
2024-01-09T21:03:49.055Z,-5.22
2024-01-09T21:05:52.443Z,-5.20
2024-01-09T21:07:55.429Z,-5.17
2024-01-09T21:09:58.232Z,-5.17
2024-01-09T21:12:01.417Z,-5.22
2024-01-09T21:14:03.941Z,-5.18
2024-01-09T21:16:07.181Z,-5.17
2024-01-09T21:18:11.578Z,-5.20
2024-01-09T21:20:14.523Z,-5.22
2024-01-09T21:22:17.501Z,-5.22
2024-01-09T21:24:19.982Z,-5.17
2024-01-09T21:26:22.495Z,-5.23
2024-01-09T21:28:25.352Z,-5.25
2024-01-09T21:30:28.709Z,-5.23
2024-01-09T21:32:33.152Z,-5.22
2024-01-09T21:34:35.923Z,-5.20
2024-01-09T21:36:41.805Z,-5.20
2024-01-09T21:38:55.289Z,-5.21
2024-01-09T21:40:59.750Z,-5.18
2024-01-09T21:43:05.398Z,-5.19
2024-01-09T21:45:09.255Z,-5.18
2024-01-09T21:47:12.230Z,-5.17
2024-01-09T21:49:14.773Z,-5.19
2024-01-09T21:51:18.435Z,-5.18
2024-01-09T21:53:21.362Z,-5.17
2024-01-09T21:55:24.516Z,-5.17
2024-01-09T21:57:28.622Z,-5.16
2024-01-09T21:59:33.863Z,-5.17
2024-01-09T22:01:37.433Z,-5.17
2024-01-09T22:03:39.995Z,-5.14
2024-01-09T22:05:42.487Z,-5.18
2024-01-09T22:07:45.039Z,-5.13
2024-01-09T22:09:48.054Z,-5.17
2024-01-09T22:11:50.514Z,-5.15
2024-01-09T22:13:53.557Z,-5.13
2024-01-09T22:15:56.524Z,-5.10
2024-01-09T22:17:59.138Z,-5.11
2024-01-09T22:20:02.320Z,-5.12
2024-01-09T22:22:05.668Z,-5.09
2024-01-09T22:24:10.786Z,-5.12
2024-01-09T22:26:20.822Z,-5.10
2024-01-09T22:28:23.383Z,-5.16
2024-01-09T22:30:28.177Z,-5.13
2024-01-09T22:32:32.877Z,-5.08
2024-01-09T22:34:35.781Z,-5.07
2024-01-09T22:36:38.373Z,-5.09
2024-01-09T22:38:41.847Z,-5.08
2024-01-09T22:40:46.381Z,-5.08
2024-01-09T22:42:49.251Z,-5.07
2024-01-09T22:44:52.400Z,-5.10
2024-01-09T22:46:55.316Z,-5.04
2024-01-09T22:48:58.534Z,-5.01
2024-01-09T22:51:01.583Z,-5.06
2024-01-09T22:53:05.001Z,-5.06
2024-01-09T22:55:09.163Z,-5.03
2024-01-09T22:57:13.725Z,-5.03
2024-01-09T22:59:16.230Z,-5.08
2024-01-09T23:01:19.152Z,-5.00
2024-01-09T23:03:22.099Z,-4.97
2024-01-09T23:05:25.203Z,-5.03
2024-01-09T23:07:28.471Z,-5.01
2024-01-09T23:09:31.583Z,-5.04
2024-01-09T23:11:35.411Z,-5.04
2024-01-09T23:13:41.743Z,-4.98
2024-01-09T23:15:44.394Z,-4.93
2024-01-09T23:17:47.330Z,-4.94
2024-01-09T23:19:50.407Z,-4.98
2024-01-09T23:21:53.020Z,-5.00
2024-01-09T23:23:55.464Z,-4.97
2024-01-09T23:25:58.668Z,-4.93
2024-01-09T23:28:02.895Z,-4.92
2024-01-09T23:30:08.666Z,-4.96
2024-01-09T23:32:13.527Z,-4.95
2024-01-09T23:34:16.843Z,-4.92
2024-01-09T23:36:20.118Z,-4.90
2024-01-09T23:38:23.395Z,-4.89
2024-01-09T23:40:29.679Z,-4.91
2024-01-09T23:42:32.730Z,-4.88
2024-01-09T23:44:35.953Z,-4.87
2024-01-09T23:46:41.781Z,-4.86
2024-01-09T23:48:46.203Z,-4.86
2024-01-09T23:50:50.014Z,-4.83
2024-01-09T23:52:53.289Z,-4.81
2024-01-09T23:54:57.913Z,-4.80
2024-01-09T23:57:02.026Z,-4.78
2024-01-09T23:59:05.199Z,-4.75
